Phoenix, Arizona
Traffic Map
Current Weather Conditions
Phoenix, Arizona
Scattered Clouds
Scattered Clouds
97°
Feels Like: 97°
Wind Chill: 97° Ceiling: Unl
Heat Index: 97° Visibility: 10mi
Dew Point: 55° Wind: 10mph
Humidity: 24% Direction: 150° (SSE)
Pressure: 29.86in Gusts: 0mph
Raw Report DataKPHX 251451Z 15009KT 10SM SCT170 SCT230 36/13 A2986 RMK AO2 SLP087 T03610128 51024
Traffic Incident Summary
Active as of:
Severity:
Category:
InformationThere was an issue retrieving the traffic information for this location. Please try a different location or try again shortly.
Advertisements
Track Severe Weather on mobile